sensor_id;sensor_type;location;lat;lon;timestamp;pressure;altitude;pressure_sealevel;temperature;humidity
31346;BME280;21711;49.708;18.568;2022-12-18T00:01:32;98712.31;;;-5.09;100.00
31346;BME280;21711;49.708;18.568;2022-12-18T00:04:02;98711.91;;;-5.05;100.00
31346;BME280;21711;49.708;18.568;2022-12-18T00:06:32;98711.09;;;-5.05;100.00
31346;BME280;21711;49.708;18.568;2022-12-18T00:09:01;98708.53;;;-5.15;100.00
31346;BME280;21711;49.708;18.568;2022-12-18T00:11:30;98705.78;;;-5.23;100.00
31346;BME280;21711;49.708;18.568;2022-12-18T00:13:59;98717.34;;;-5.08;100.00
31346;BME280;21711;49.708;18.568;2022-12-18T00:16:27;98717.06;;;-5.15;100.00
31346;BME280;21711;49.708;18.568;2022-12-18T00:18:56;98727.09;;;-5.21;100.00
31346;BME280;21711;49.708;18.568;2022-12-18T00:21:24;98726.97;;;-5.20;100.00
31346;BME280;21711;49.708;18.568;2022-12-18T00:23:51;98730.09;;;-5.16;100.00
31346;BME280;21711;49.708;18.568;2022-12-18T00:26:21;98736.59;;;-5.12;100.00
31346;BME280;21711;49.708;18.568;2022-12-18T00:28:52;98735.94;;;-5.14;100.00
31346;BME280;21711;49.708;18.568;2022-12-18T00:31:22;98732.69;;;-5.06;100.00
31346;BME280;21711;49.708;18.568;2022-12-18T00:33:56;98732.94;;;-5.09;100.00
31346;BME280;21711;49.708;18.568;2022-12-18T00:36:25;98740.84;;;-4.91;100.00
31346;BME280;21711;49.708;18.568;2022-12-18T00:38:54;98736.19;;;-5.17;100.00
31346;BME280;21711;49.708;18.568;2022-12-18T00:41:22;98744.50;;;-5.04;100.00
31346;BME280;21711;49.708;18.568;2022-12-18T00:44:10;98748.84;;;-5.04;100.00
31346;BME280;21711;49.708;18.568;2022-12-18T00:46:39;98747.22;;;-5.05;100.00
31346;BME280;21711;49.708;18.568;2022-12-18T00:49:07;98753.19;;;-5.05;100.00
31346;BME280;21711;49.708;18.568;2022-12-18T00:51:37;98752.66;;;-5.08;100.00
31346;BME280;21711;49.708;18.568;2022-12-18T00:54:05;98760.66;;;-5.02;100.00
31346;BME280;21711;49.708;18.568;2022-12-18T00:56:32;98768.38;;;-5.21;100.00
31346;BME280;21711;49.708;18.568;2022-12-18T00:59:00;98764.56;;;-5.37;100.00
31346;BME280;21711;49.708;18.568;2022-12-18T01:01:27;98764.84;;;-5.30;100.00
31346;BME280;21711;49.708;18.568;2022-12-18T01:03:55;98765.28;;;-5.15;100.00
31346;BME280;21711;49.708;18.568;2022-12-18T01:06:22;98767.31;;;-4.89;100.00
31346;BME280;21711;49.708;18.568;2022-12-18T01:08:50;98767.88;;;-4.95;100.00
31346;BME280;21711;49.708;18.568;2022-12-18T01:11:19;98774.66;;;-5.14;100.00
31346;BME280;21711;49.708;18.568;2022-12-18T01:13:46;98772.34;;;-5.07;100.00
31346;BME280;21711;49.708;18.568;2022-12-18T01:16:15;98778.03;;;-5.04;100.00
31346;BME280;21711;49.708;18.568;2022-12-18T01:18:42;98776.00;;;-5.10;100.00
31346;BME280;21711;49.708;18.568;2022-12-18T01:21:16;98775.72;;;-5.07;100.00
31346;BME280;21711;49.708;18.568;2022-12-18T01:23:43;98776.69;;;-4.88;100.00
31346;BME280;21711;49.708;18.568;2022-12-18T01:26:15;98779.41;;;-4.90;100.00
31346;BME280;21711;49.708;18.568;2022-12-18T01:28:43;98785.91;;;-5.15;100.00
31346;BME280;21711;49.708;18.568;2022-12-18T01:31:11;98781.16;;;-5.10;100.00
31346;BME280;21711;49.708;18.568;2022-12-18T01:33:39;98791.91;;;-4.85;100.00
31346;BME280;21711;49.708;18.568;2022-12-18T01:36:07;98790.53;;;-4.89;100.00
31346;BME280;21711;49.708;18.568;2022-12-18T01:38:34;98795.84;;;-5.00;100.00
31346;BME280;21711;49.708;18.568;2022-12-18T01:41:01;98807.09;;;-5.11;100.00
31346;BME280;21711;49.708;18.568;2022-12-18T01:43:44;98800.41;;;-5.24;100.00
31346;BME280;21711;49.708;18.568;2022-12-18T01:46:11;98805.81;;;-5.37;100.00
31346;BME280;21711;49.708;18.568;2022-12-18T01:48:39;98811.13;;;-5.29;100.00
31346;BME280;21711;49.708;18.568;2022-12-18T01:51:08;98809.81;;;-5.13;100.00
31346;BME280;21711;49.708;18.568;2022-12-18T01:53:37;98802.34;;;-5.06;100.00
31346;BME280;21711;49.708;18.568;2022-12-18T01:56:06;98810.75;;;-5.14;100.00
31346;BME280;21711;49.708;18.568;2022-12-18T01:58:46;98814.44;;;-5.07;100.00
31346;BME280;21711;49.708;18.568;2022-12-18T02:01:15;98809.69;;;-4.92;100.00
31346;BME280;21711;49.708;18.568;2022-12-18T02:03:44;98809.16;;;-4.76;100.00
31346;BME280;21711;49.708;18.568;2022-12-18T02:06:21;98821.25;;;-4.76;100.00
31346;BME280;21711;49.708;18.568;2022-12-18T02:08:55;98821.53;;;-4.79;100.00
31346;BME280;21711;49.708;18.568;2022-12-18T02:17:21;98826.53;;;-4.97;100.00
31346;BME280;21711;49.708;18.568;2022-12-18T02:28:11;98829.16;;;-4.68;100.00
31346;BME280;21711;49.708;18.568;2022-12-18T02:30:40;98834.72;;;-4.72;100.00
31346;BME280;21711;49.708;18.568;2022-12-18T02:33:09;98841.63;;;-4.93;100.00
31346;BME280;21711;49.708;18.568;2022-12-18T02:35:38;98831.88;;;-4.79;100.00
31346;BME280;21711;49.708;18.568;2022-12-18T02:38:07;98839.19;;;-4.75;100.00
31346;BME280;21711;49.708;18.568;2022-12-18T02:40:36;98840.66;;;-5.02;100.00
31346;BME280;21711;49.708;18.568;2022-12-18T02:43:15;98848.16;;;-4.89;100.00
31346;BME280;21711;49.708;18.568;2022-12-18T02:45:55;98849.66;;;-4.66;100.00
31346;BME280;21711;49.708;18.568;2022-12-18T02:48:26;98846.53;;;-4.60;100.00
31346;BME280;21711;49.708;18.568;2022-12-18T02:51:24;98859.56;;;-4.91;100.00
31346;BME280;21711;49.708;18.568;2022-12-18T02:54:02;98857.22;;;-5.04;100.00
31346;BME280;21711;49.708;18.568;2022-12-18T02:56:36;98851.13;;;-4.93;100.00
31346;BME280;21711;49.708;18.568;2022-12-18T02:59:08;98856.78;;;-5.19;100.00
31346;BME280;21711;49.708;18.568;2022-12-18T03:01:57;98863.31;;;-5.05;100.00
31346;BME280;21711;49.708;18.568;2022-12-18T03:06:59;98857.03;;;-5.32;100.00
31346;BME280;21711;49.708;18.568;2022-12-18T03:09:38;98858.72;;;-5.43;100.00
31346;BME280;21711;49.708;18.568;2022-12-18T03:17:26;98872.34;;;-5.31;100.00
31346;BME280;21711;49.708;18.568;2022-12-18T03:19:54;98874.25;;;-5.33;100.00
31346;BME280;21711;49.708;18.568;2022-12-18T03:22:24;98883.41;;;-5.09;100.00
31346;BME280;21711;49.708;18.568;2022-12-18T03:24:54;98880.97;;;-5.20;100.00
31346;BME280;21711;49.708;18.568;2022-12-18T03:27:23;98886.66;;;-5.17;100.00
31346;BME280;21711;49.708;18.568;2022-12-18T03:30:15;98890.75;;;-5.14;100.00
31346;BME280;21711;49.708;18.568;2022-12-18T03:33:23;98894.06;;;-5.33;100.00
31346;BME280;21711;49.708;18.568;2022-12-18T03:35:44;98885.81;;;-5.27;100.00
31346;BME280;21711;49.708;18.568;2022-12-18T03:38:12;98892.25;;;-5.11;100.00
31346;BME280;21711;49.708;18.568;2022-12-18T03:43:54;98889.03;;;-4.94;100.00
31346;BME280;21711;49.708;18.568;2022-12-18T03:48:59;98894.22;;;-4.84;100.00
31346;BME280;21711;49.708;18.568;2022-12-18T03:51:42;98894.19;;;-4.94;100.00
31346;BME280;21711;49.708;18.568;2022-12-18T03:54:13;98897.06;;;-4.77;100.00
31346;BME280;21711;49.708;18.568;2022-12-18T03:56:57;98903.19;;;-4.78;100.00
31346;BME280;21711;49.708;18.568;2022-12-18T03:59:25;98921.69;;;-5.14;100.00
31346;BME280;21711;49.708;18.568;2022-12-18T04:01:53;98913.13;;;-5.15;100.00
31346;BME280;21711;49.708;18.568;2022-12-18T04:04:23;98911.41;;;-5.04;100.00
31346;BME280;21711;49.708;18.568;2022-12-18T04:06:51;98909.75;;;-5.15;100.00
31346;BME280;21711;49.708;18.568;2022-12-18T04:09:19;98916.00;;;-5.18;100.00
31346;BME280;21711;49.708;18.568;2022-12-18T04:11:48;98921.78;;;-5.25;100.00
31346;BME280;21711;49.708;18.568;2022-12-18T04:14:16;98924.41;;;-5.16;100.00
31346;BME280;21711;49.708;18.568;2022-12-18T04:16:45;98926.69;;;-5.22;100.00
31346;BME280;21711;49.708;18.568;2022-12-18T04:19:15;98928.75;;;-5.47;100.00
31346;BME280;21711;49.708;18.568;2022-12-18T04:21:44;98926.53;;;-5.52;100.00
31346;BME280;21711;49.708;18.568;2022-12-18T04:24:13;98931.06;;;-5.44;100.00
31346;BME280;21711;49.708;18.568;2022-12-18T04:26:48;98933.31;;;-5.30;100.00
31346;BME280;21711;49.708;18.568;2022-12-18T04:29:17;98931.53;;;-5.29;100.00
31346;BME280;21711;49.708;18.568;2022-12-18T04:31:45;98944.81;;;-5.12;100.00
31346;BME280;21711;49.708;18.568;2022-12-18T04:34:12;98939.28;;;-4.98;100.00
31346;BME280;21711;49.708;18.568;2022-12-18T04:36:47;98937.66;;;-4.99;100.00
31346;BME280;21711;49.708;18.568;2022-12-18T04:39:15;98958.25;;;-5.09;100.00
31346;BME280;21711;49.708;18.568;2022-12-18T04:41:42;98950.38;;;-5.07;100.00
31346;BME280;21711;49.708;18.568;2022-12-18T04:44:11;98958.44;;;-5.00;100.00
31346;BME280;21711;49.708;18.568;2022-12-18T04:46:38;98960.19;;;-5.01;100.00
31346;BME280;21711;49.708;18.568;2022-12-18T04:49:06;98966.75;;;-5.18;100.00
31346;BME280;21711;49.708;18.568;2022-12-18T04:51:33;98961.34;;;-5.15;100.00
31346;BME280;21711;49.708;18.568;2022-12-18T04:54:00;98963.31;;;-4.97;100.00
31346;BME280;21711;49.708;18.568;2022-12-18T04:56:27;98964.03;;;-4.85;100.00
31346;BME280;21711;49.708;18.568;2022-12-18T04:58:54;98967.25;;;-5.03;100.00
31346;BME280;21711;49.708;18.568;2022-12-18T05:01:21;98972.41;;;-5.03;100.00
31346;BME280;21711;49.708;18.568;2022-12-18T05:03:48;98979.63;;;-4.97;100.00
31346;BME280;21711;49.708;18.568;2022-12-18T05:06:16;98986.88;;;-5.12;100.00
31346;BME280;21711;49.708;18.568;2022-12-18T05:08:43;98989.03;;;-5.17;100.00
31346;BME280;21711;49.708;18.568;2022-12-18T05:11:12;98993.13;;;-5.15;100.00
31346;BME280;21711;49.708;18.568;2022-12-18T05:13:43;98984.94;;;-5.20;100.00
31346;BME280;21711;49.708;18.568;2022-12-18T05:16:12;98985.91;;;-5.21;100.00
31346;BME280;21711;49.708;18.568;2022-12-18T05:18:40;98988.16;;;-5.28;100.00
31346;BME280;21711;49.708;18.568;2022-12-18T05:21:07;98981.28;;;-5.48;100.00
31346;BME280;21711;49.708;18.568;2022-12-18T05:23:35;98987.44;;;-5.61;100.00
31346;BME280;21711;49.708;18.568;2022-12-18T05:26:05;98984.03;;;-5.61;100.00
31346;BME280;21711;49.708;18.568;2022-12-18T05:28:33;98991.63;;;-5.38;100.00
31346;BME280;21711;49.708;18.568;2022-12-18T05:31:02;98997.06;;;-5.20;100.00
31346;BME280;21711;49.708;18.568;2022-12-18T05:33:31;99001.25;;;-5.19;100.00
31346;BME280;21711;49.708;18.568;2022-12-18T05:36:03;99003.53;;;-5.26;100.00
31346;BME280;21711;49.708;18.568;2022-12-18T05:38:31;98998.06;;;-5.33;100.00
31346;BME280;21711;49.708;18.568;2022-12-18T05:40:59;98994.22;;;-5.38;100.00
31346;BME280;21711;49.708;18.568;2022-12-18T05:43:26;99005.59;;;-5.20;100.00
31346;BME280;21711;49.708;18.568;2022-12-18T05:45:54;99004.44;;;-5.06;100.00
31346;BME280;21711;49.708;18.568;2022-12-18T05:48:21;99003.31;;;-5.13;100.00
31346;BME280;21711;49.708;18.568;2022-12-18T05:50:49;99009.84;;;-5.09;100.00
31346;BME280;21711;49.708;18.568;2022-12-18T05:53:18;99006.50;;;-4.99;100.00
31346;BME280;21711;49.708;18.568;2022-12-18T05:55:46;99007.84;;;-5.05;100.00
31346;BME280;21711;49.708;18.568;2022-12-18T05:58:14;99004.63;;;-5.19;100.00
31346;BME280;21711;49.708;18.568;2022-12-18T06:00:44;99006.72;;;-5.12;100.00
31346;BME280;21711;49.708;18.568;2022-12-18T06:03:12;99012.94;;;-4.94;100.00
31346;BME280;21711;49.708;18.568;2022-12-18T06:05:42;99015.63;;;-4.95;100.00
31346;BME280;21711;49.708;18.568;2022-12-18T06:08:10;99017.81;;;-4.91;100.00
31346;BME280;21711;49.708;18.568;2022-12-18T06:10:38;99014.94;;;-4.97;100.00
31346;BME280;21711;49.708;18.568;2022-12-18T06:13:05;99021.22;;;-4.90;100.00
31346;BME280;21711;49.708;18.568;2022-12-18T06:15:35;99017.69;;;-4.89;100.00
31346;BME280;21711;49.708;18.568;2022-12-18T06:18:02;99020.28;;;-4.89;100.00
31346;BME280;21711;49.708;18.568;2022-12-18T06:20:30;99024.47;;;-4.88;100.00
31346;BME280;21711;49.708;18.568;2022-12-18T06:22:59;99018.97;;;-5.05;100.00
31346;BME280;21711;49.708;18.568;2022-12-18T06:25:27;99014.16;;;-5.41;100.00
31346;BME280;21711;49.708;18.568;2022-12-18T06:27:54;99029.06;;;-5.23;100.00
31346;BME280;21711;49.708;18.568;2022-12-18T06:30:22;99022.13;;;-5.22;100.00
31346;BME280;21711;49.708;18.568;2022-12-18T06:32:49;99024.16;;;-5.05;100.00
31346;BME280;21711;49.708;18.568;2022-12-18T06:35:22;99027.06;;;-4.88;100.00
31346;BME280;21711;49.708;18.568;2022-12-18T06:37:50;99027.16;;;-4.99;100.00
31346;BME280;21711;49.708;18.568;2022-12-18T06:40:18;99031.59;;;-5.02;100.00
31346;BME280;21711;49.708;18.568;2022-12-18T06:42:45;99030.47;;;-4.88;100.00
31346;BME280;21711;49.708;18.568;2022-12-18T06:45:13;99041.63;;;-4.87;100.00
31346;BME280;21711;49.708;18.568;2022-12-18T06:47:40;99041.16;;;-4.92;100.00
31346;BME280;21711;49.708;18.568;2022-12-18T06:50:07;99040.28;;;-4.81;100.00
31346;BME280;21711;49.708;18.568;2022-12-18T06:52:34;99047.06;;;-4.80;100.00
31346;BME280;21711;49.708;18.568;2022-12-18T06:55:02;99050.53;;;-4.70;100.00
31346;BME280;21711;49.708;18.568;2022-12-18T06:57:29;99050.72;;;-4.83;100.00
31346;BME280;21711;49.708;18.568;2022-12-18T06:59:57;99056.75;;;-4.72;100.00
31346;BME280;21711;49.708;18.568;2022-12-18T07:02:24;99064.66;;;-4.64;100.00
31346;BME280;21711;49.708;18.568;2022-12-18T07:04:51;99056.38;;;-4.68;100.00
31346;BME280;21711;49.708;18.568;2022-12-18T07:07:18;99057.78;;;-4.85;100.00
31346;BME280;21711;49.708;18.568;2022-12-18T07:09:46;99077.88;;;-4.89;100.00
31346;BME280;21711;49.708;18.568;2022-12-18T07:12:13;99077.69;;;-4.97;100.00
31346;BME280;21711;49.708;18.568;2022-12-18T07:14:40;99083.44;;;-5.15;100.00
31346;BME280;21711;49.708;18.568;2022-12-18T07:17:07;99087.47;;;-5.22;100.00
31346;BME280;21711;49.708;18.568;2022-12-18T07:19:34;99085.75;;;-5.11;100.00
31346;BME280;21711;49.708;18.568;2022-12-18T07:22:02;99084.59;;;-4.97;100.00
31346;BME280;21711;49.708;18.568;2022-12-18T07:24:30;99086.00;;;-4.93;100.00
31346;BME280;21711;49.708;18.568;2022-12-18T07:27:00;99095.38;;;-4.92;100.00
31346;BME280;21711;49.708;18.568;2022-12-18T07:29:27;99098.84;;;-4.82;100.00
31346;BME280;21711;49.708;18.568;2022-12-18T07:31:54;99098.63;;;-4.69;100.00
31346;BME280;21711;49.708;18.568;2022-12-18T07:34:21;99107.06;;;-4.67;100.00
31346;BME280;21711;49.708;18.568;2022-12-18T07:36:48;99106.63;;;-4.72;100.00
31346;BME280;21711;49.708;18.568;2022-12-18T07:39:16;99114.66;;;-4.75;100.00
31346;BME280;21711;49.708;18.568;2022-12-18T07:41:43;99108.97;;;-4.69;100.00
31346;BME280;21711;49.708;18.568;2022-12-18T07:44:15;99117.66;;;-4.70;100.00
31346;BME280;21711;49.708;18.568;2022-12-18T07:46:42;99124.47;;;-4.90;100.00
31346;BME280;21711;49.708;18.568;2022-12-18T07:49:09;99120.09;;;-4.68;100.00
31346;BME280;21711;49.708;18.568;2022-12-18T07:51:36;99130.28;;;-4.67;100.00
31346;BME280;21711;49.708;18.568;2022-12-18T07:54:04;99126.09;;;-4.68;100.00
31346;BME280;21711;49.708;18.568;2022-12-18T07:56:31;99128.53;;;-4.66;100.00
31346;BME280;21711;49.708;18.568;2022-12-18T07:58:58;99132.50;;;-4.62;100.00
31346;BME280;21711;49.708;18.568;2022-12-18T08:01:31;99130.59;;;-4.60;100.00
31346;BME280;21711;49.708;18.568;2022-12-18T08:03:58;99127.91;;;-4.58;100.00
31346;BME280;21711;49.708;18.568;2022-12-18T08:06:25;99124.81;;;-4.73;100.00
31346;BME280;21711;49.708;18.568;2022-12-18T08:08:54;99127.66;;;-4.55;100.00
31346;BME280;21711;49.708;18.568;2022-12-18T08:11:23;99136.56;;;-4.38;100.00
31346;BME280;21711;49.708;18.568;2022-12-18T08:13:51;99132.25;;;-4.28;100.00
31346;BME280;21711;49.708;18.568;2022-12-18T08:16:19;99134.00;;;-4.28;100.00
31346;BME280;21711;49.708;18.568;2022-12-18T08:18:47;99136.84;;;-4.31;100.00
31346;BME280;21711;49.708;18.568;2022-12-18T08:21:34;99136.63;;;-4.50;100.00
31346;BME280;21711;49.708;18.568;2022-12-18T08:24:01;99134.22;;;-4.41;100.00
31346;BME280;21711;49.708;18.568;2022-12-18T08:26:30;99140.88;;;-4.49;100.00
31346;BME280;21711;49.708;18.568;2022-12-18T08:28:59;99142.03;;;-4.31;100.00
31346;BME280;21711;49.708;18.568;2022-12-18T08:31:27;99148.56;;;-4.27;100.00
31346;BME280;21711;49.708;18.568;2022-12-18T08:33:55;99155.09;;;-4.23;100.00
31346;BME280;21711;49.708;18.568;2022-12-18T08:36:23;99149.06;;;-4.65;100.00
31346;BME280;21711;49.708;18.568;2022-12-18T08:38:52;99143.56;;;-4.50;100.00
31346;BME280;21711;49.708;18.568;2022-12-18T08:41:20;99157.19;;;-4.69;100.00
31346;BME280;21711;49.708;18.568;2022-12-18T08:43:47;99159.53;;;-4.66;100.00
31346;BME280;21711;49.708;18.568;2022-12-18T08:46:36;99157.38;;;-4.61;100.00
31346;BME280;21711;49.708;18.568;2022-12-18T08:49:04;99162.72;;;-4.22;100.00
31346;BME280;21711;49.708;18.568;2022-12-18T08:51:32;99168.09;;;-4.03;100.00
31346;BME280;21711;49.708;18.568;2022-12-18T08:54:00;99169.00;;;-3.73;100.00
31346;BME280;21711;49.708;18.568;2022-12-18T08:56:28;99174.28;;;-3.75;100.00
31346;BME280;21711;49.708;18.568;2022-12-18T08:58:57;99182.88;;;-3.74;100.00
31346;BME280;21711;49.708;18.568;2022-12-18T09:01:24;99175.03;;;-4.04;100.00
31346;BME280;21711;49.708;18.568;2022-12-18T09:03:51;99179.66;;;-4.07;100.00
31346;BME280;21711;49.708;18.568;2022-12-18T09:06:22;99170.28;;;-4.08;100.00
31346;BME280;21711;49.708;18.568;2022-12-18T09:08:50;99180.25;;;-3.84;100.00
31346;BME280;21711;49.708;18.568;2022-12-18T09:11:23;99180.25;;;-3.94;100.00
31346;BME280;21711;49.708;18.568;2022-12-18T09:13:52;99189.50;;;-3.91;100.00
31346;BME280;21711;49.708;18.568;2022-12-18T09:16:20;99187.47;;;-3.88;100.00
31346;BME280;21711;49.708;18.568;2022-12-18T09:18:50;99185.13;;;-4.01;100.00
31346;BME280;21711;49.708;18.568;2022-12-18T09:21:20;99182.69;;;-3.92;100.00
31346;BME280;21711;49.708;18.568;2022-12-18T09:23:51;99182.78;;;-4.04;100.00
31346;BME280;21711;49.708;18.568;2022-12-18T09:26:19;99186.50;;;-3.87;100.00
31346;BME280;21711;49.708;18.568;2022-12-18T09:28:46;99196.97;;;-3.88;100.00
31346;BME280;21711;49.708;18.568;2022-12-18T09:31:14;99189.38;;;-4.21;100.00
31346;BME280;21711;49.708;18.568;2022-12-18T09:33:42;99194.84;;;-4.14;100.00
31346;BME280;21711;49.708;18.568;2022-12-18T09:36:11;99185.97;;;-4.22;100.00
31346;BME280;21711;49.708;18.568;2022-12-18T09:38:39;99184.16;;;-4.00;100.00
31346;BME280;21711;49.708;18.568;2022-12-18T09:44:17;99185.00;;;-4.30;100.00
31346;BME280;21711;49.708;18.568;2022-12-18T09:46:50;99181.66;;;-4.42;100.00
31346;BME280;21711;49.708;18.568;2022-12-18T09:49:22;99185.38;;;-4.04;100.00
31346;BME280;21711;49.708;18.568;2022-12-18T09:51:58;99190.75;;;-3.76;100.00
31346;BME280;21711;49.708;18.568;2022-12-18T09:54:34;99184.81;;;-3.66;100.00
31346;BME280;21711;49.708;18.568;2022-12-18T09:57:03;99184.56;;;-3.44;100.00
31346;BME280;21711;49.708;18.568;2022-12-18T09:59:36;99187.16;;;-3.24;100.00
31346;BME280;21711;49.708;18.568;2022-12-18T10:02:24;99187.03;;;-3.42;100.00
31346;BME280;21711;49.708;18.568;2022-12-18T10:11:12;99183.28;;;-3.69;100.00
31346;BME280;21711;49.708;18.568;2022-12-18T10:13:31;99181.16;;;-3.54;100.00
31346;BME280;21711;49.708;18.568;2022-12-18T10:16:19;99173.25;;;-3.42;100.00
31346;BME280;21711;49.708;18.568;2022-12-18T10:21:52;99163.44;;;-3.19;100.00
31346;BME280;21711;49.708;18.568;2022-12-18T10:24:36;99155.22;;;-2.65;100.00
31346;BME280;21711;49.708;18.568;2022-12-18T10:27:18;99150.09;;;-1.81;100.00
31346;BME280;21711;49.708;18.568;2022-12-18T10:29:45;99151.06;;;-2.10;100.00
31346;BME280;21711;49.708;18.568;2022-12-18T10:32:15;99155.50;;;-1.74;100.00
31346;BME280;21711;49.708;18.568;2022-12-18T10:34:52;99160.13;;;-0.95;100.00
31346;BME280;21711;49.708;18.568;2022-12-18T10:37:28;99152.81;;;-0.73;100.00
31346;BME280;21711;49.708;18.568;2022-12-18T10:40:11;99146.50;;;-0.71;100.00
31346;BME280;21711;49.708;18.568;2022-12-18T10:43:03;99141.41;;;-0.19;100.00
31346;BME280;21711;49.708;18.568;2022-12-18T10:45:30;99140.34;;;-0.70;100.00
31346;BME280;21711;49.708;18.568;2022-12-18T10:47:58;99132.78;;;-0.81;100.00
31346;BME280;21711;49.708;18.568;2022-12-18T10:50:31;99131.25;;;-0.92;100.00
31346;BME280;21711;49.708;18.568;2022-12-18T10:53:23;99133.28;;;-0.51;100.00
31346;BME280;21711;49.708;18.568;2022-12-18T10:55:53;99139.03;;;0.04;100.00
31346;BME280;21711;49.708;18.568;2022-12-18T10:58:30;99137.88;;;1.00;100.00
31346;BME280;21711;49.708;18.568;2022-12-18T11:03:38;99136.66;;;2.79;57.50
31346;BME280;21711;49.708;18.568;2022-12-18T11:06:19;99150.78;;;4.72;50.27
31346;BME280;21711;49.708;18.568;2022-12-18T11:11:41;99145.50;;;6.36;43.68
31346;BME280;21711;49.708;18.568;2022-12-18T11:14:18;99143.25;;;5.77;43.95
31346;BME280;21711;49.708;18.568;2022-12-18T11:16:48;99139.72;;;5.63;44.71
31346;BME280;21711;49.708;18.568;2022-12-18T11:19:38;99145.00;;;5.06;45.12
31346;BME280;21711;49.708;18.568;2022-12-18T11:22:30;99134.63;;;4.69;46.06
31346;BME280;21711;49.708;18.568;2022-12-18T11:25:06;99132.88;;;3.35;49.12
31346;BME280;21711;49.708;18.568;2022-12-18T11:28:04;99123.28;;;1.95;51.42
31346;BME280;21711;49.708;18.568;2022-12-18T11:30:36;99126.78;;;0.89;54.97
31346;BME280;21711;49.708;18.568;2022-12-18T11:33:05;99121.31;;;-0.01;60.08
31346;BME280;21711;49.708;18.568;2022-12-18T11:36:02;99109.25;;;-0.80;61.81
31346;BME280;21711;49.708;18.568;2022-12-18T11:38:39;99114.06;;;-1.11;63.08
31346;BME280;21711;49.708;18.568;2022-12-18T11:41:30;99120.69;;;-1.72;66.33
31346;BME280;21711;49.708;18.568;2022-12-18T11:44:24;99120.91;;;-1.65;66.10
31346;BME280;21711;49.708;18.568;2022-12-18T11:46:59;99131.56;;;-1.86;66.76
31346;BME280;21711;49.708;18.568;2022-12-18T11:49:36;99127.63;;;-1.90;66.50
31346;BME280;21711;49.708;18.568;2022-12-18T11:54:36;99130.06;;;-2.45;69.66
31346;BME280;21711;49.708;18.568;2022-12-18T11:59:53;99129.66;;;-2.98;72.47
31346;BME280;21711;49.708;18.568;2022-12-18T12:33:28;99160.59;;;-1.54;69.78
31346;BME280;21711;49.708;18.568;2022-12-18T12:38:45;99153.59;;;-2.28;72.60
31346;BME280;21711;49.708;18.568;2022-12-18T12:41:25;99163.28;;;-2.68;71.68
31346;BME280;21711;49.708;18.568;2022-12-18T12:44:32;99169.97;;;-2.85;72.87
31346;BME280;21711;49.708;18.568;2022-12-18T12:47:14;99163.03;;;-2.95;74.39
31346;BME280;21711;49.708;18.568;2022-12-18T12:49:43;99173.28;;;-3.13;74.66
31346;BME280;21711;49.708;18.568;2022-12-18T12:52:28;99172.81;;;-3.58;73.82
31346;BME280;21711;49.708;18.568;2022-12-18T12:54:57;99166.81;;;-3.68;75.62
31346;BME280;21711;49.708;18.568;2022-12-18T12:57:36;99168.53;;;-3.88;76.06
31346;BME280;21711;49.708;18.568;2022-12-18T13:00:09;99165.25;;;-4.00;79.21
31346;BME280;21711;49.708;18.568;2022-12-18T13:05:34;99164.88;;;-3.86;80.39
31346;BME280;21711;49.708;18.568;2022-12-18T13:08:07;99152.81;;;-4.16;78.55
31346;BME280;21711;49.708;18.568;2022-12-18T13:10:39;99151.38;;;-4.62;80.71
31346;BME280;21711;49.708;18.568;2022-12-18T13:15:41;99168.16;;;-4.98;83.73
31346;BME280;21711;49.708;18.568;2022-12-18T13:20:46;99172.97;;;-5.26;88.33
31346;BME280;21711;49.708;18.568;2022-12-18T13:23:36;99169.94;;;-5.32;88.99
31346;BME280;21711;49.708;18.568;2022-12-18T13:31:58;99166.97;;;-5.60;91.64
31346;BME280;21711;49.708;18.568;2022-12-18T13:34:19;99161.06;;;-5.83;91.33
31346;BME280;21711;49.708;18.568;2022-12-18T13:40:01;99161.66;;;-5.91;94.21
31346;BME280;21711;49.708;18.568;2022-12-18T13:45:43;99152.88;;;-6.00;94.89
31346;BME280;21711;49.708;18.568;2022-12-18T13:48:34;99154.91;;;-6.03;94.04
31346;BME280;21711;49.708;18.568;2022-12-18T13:51:07;99158.41;;;-6.16;92.48
31346;BME280;21711;49.708;18.568;2022-12-18T13:53:39;99157.25;;;-6.23;96.56
31346;BME280;21711;49.708;18.568;2022-12-18T13:56:15;99155.72;;;-6.26;92.72
31346;BME280;21711;49.708;18.568;2022-12-18T13:58:44;99159.59;;;-6.43;97.25
31346;BME280;21711;49.708;18.568;2022-12-18T14:01:24;99162.97;;;-6.54;90.31
31346;BME280;21711;49.708;18.568;2022-12-18T14:04:21;99163.16;;;-6.80;91.94
31346;BME280;21711;49.708;18.568;2022-12-18T14:06:50;99161.25;;;-7.01;92.62
31346;BME280;21711;49.708;18.568;2022-12-18T14:09:23;99164.47;;;-7.10;96.45
31346;BME280;21711;49.708;18.568;2022-12-18T14:11:53;99163.16;;;-7.16;95.81
31346;BME280;21711;49.708;18.568;2022-12-18T14:14:43;99165.72;;;-7.27;99.99
31346;BME280;21711;49.708;18.568;2022-12-18T14:17:14;99170.56;;;-7.35;100.00
31346;BME280;21711;49.708;18.568;2022-12-18T14:19:44;99167.63;;;-7.42;100.00
31346;BME280;21711;49.708;18.568;2022-12-18T14:22:16;99162.81;;;-7.47;99.96
31346;BME280;21711;49.708;18.568;2022-12-18T14:24:45;99162.00;;;-7.47;100.00
31346;BME280;21711;49.708;18.568;2022-12-18T14:27:24;99165.66;;;-7.63;100.00
31346;BME280;21711;49.708;18.568;2022-12-18T14:29:51;99174.78;;;-7.59;100.00
31346;BME280;21711;49.708;18.568;2022-12-18T14:32:20;99175.34;;;-7.67;100.00
31346;BME280;21711;49.708;18.568;2022-12-18T14:34:51;99175.53;;;-7.70;100.00
31346;BME280;21711;49.708;18.568;2022-12-18T14:37:22;99182.25;;;-7.80;100.00
31346;BME280;21711;49.708;18.568;2022-12-18T14:40:01;99173.75;;;-7.94;100.00
31346;BME280;21711;49.708;18.568;2022-12-18T14:42:37;99173.69;;;-8.05;100.00
31346;BME280;21711;49.708;18.568;2022-12-18T14:45:36;99181.59;;;-8.08;100.00
31346;BME280;21711;49.708;18.568;2022-12-18T14:48:22;99170.84;;;-8.26;100.00
31346;BME280;21711;49.708;18.568;2022-12-18T14:51:16;99174.66;;;-8.45;100.00